White City, OR (97503)

9:14 PM PDT on June 26, 2017 (GMT -0700)
Carestream Health | | Change Station
Active Advisory: Fire Weather Warning

Elev 1300 ft 42.43 °N, 122.88 °W | Updated 6 seconds ago

Partly Cloudy
Partly Cloudy
74.0 °F
Feels Like 77 °F
N
3.8
Wind Variable Wind from NW

Today
High -- | Low -- °F
--% Chance of Precip.
Yesterday
High -- | Low -- °F
Precip. -- in
Pressure 29.90 in
Visibility 10.0 miles
Clouds Scattered Clouds 8000 ft
Heat Index 77 °F
Dew Point 58 °F
Humidity 57%
Rainfall 0.00 in
Snow Depth Not available.
5:36 AM 8:52 PM
Waxing Crescent, 13% visible
METAR KMFR 270353Z 34010KT 10SM SCT080 26/15 A2993 RMK AO2 SLP125 T02560150
Pressure 29.90 in
Visibility 10.0 miles
Clouds Scattered Clouds 8000 ft
Heat Index 77 °F
Dew Point 58 °F
Humidity 57%
Rainfall 0.00 in
Snow Depth Not available.
5:36 AM 8:52 PM
Waxing Crescent, 13% visible
METAR KMFR 270353Z 34010KT 10SM SCT080 26/15 A2993 RMK AO2 SLP125 T02560150

Get Your Daily Forecast Email!

Thanks for signing up!

Be on the lookout for a verification email in your inbox.

You'll start receiving severe weather alerts in your inbox..

×

10-Day Weather Forecast

Almanac

Astronomy

Jun. 26, 2017 Rise Set
Actual Time
Civil Twilight
Nautical Twilight
Astronomical Twilight
Moon
Length of Visible Light
Length of Day
Tomorrow will be .
, % of the Moon is Illuminated

Today's Extremes

State Highs State Lows

Community

WunderPhotos

Category 6

Welcome to Category 6. This is the collective home for Weather Underground's featured writeups by Dr. Jeff Masters (right), Bob Henson (left), Chris Burt, and other regular contributors.

Nearby

Air Quality

  Air Quality AQ Index Pollutant
Not available.

Snow Depth

Station Depth Elevation

Earthquake Activity

City Distance Mag. Time & Date
Minimum magnitude displayed is 2.5.

Coastal Water Temperatures

Place Temperature

Stations

Nearby Weather Stations

Station Location Temp. Windchill Dew Point Humidity Wind Precip. Elev Updated Type
                   

Watches & Warnings

Fire Weather Warning
Issued: 8:47 PM PDT Jun. 26, 2017 – National Weather Service

... Red flag warning remains in effect until 11 PM PDT this
evening for abundant lightning with dry fuels for fire weather
zones 621 and 623...

* impacts: lightning and dry fine fuels will likely result in
new fire starts. Gusty thunderstorm winds could contribute to
fire spread. Initial attack resources could be overwhelmed
and holdover fires are possible.

* Fuels: while heavy fuel moistures may not be conducive to
significant fire growth, finer fuels are dry and may ignite
andcarry fire.

* Thunderstorms: isolated to scattered.

* Timing: thunderstorm coverage is expected to be greatest in the
evening.

* Affected area: in southwest or... fire weather zones 621 and
623.

* Counties affected: in northern CA... Siskiyou. In south
central or... Klamath. In southwest or... Jackson... Josephine.

* View the hazard area in detail at
http://weather.Gov/Medford/hazard